KBWG/BWG METAR and TAF weather

Enter ICAO airport designator
Station Type Date Time Source
KBWG METAR 2020/06/02 17:53 UTC NOAA

KBWG 021753Z AUTO 22014G18KT 10SM CLR 30/18 A3011 RMK AO2 SLP189 T03000178 10300 20206 57013


Station Type Date Time Source
KBWG Decoded METAR 2020/06/02 17:53 UTC NOAA

BOWLING GREEN-WARREN CO RGNL, KY, United States (KBWG) 36-58N 086-25W 161M
Jun 02, 2020 - 01:53 PM EDT / 2020.06.02 1753 UTC
Wind: from the SW (220 degrees) at 16 MPH (14 KT) gusting to 21 MPH (18 KT):0
Visibility: 10 mile(s):0
Sky conditions: clear
Temperature: 86.0 F (30.0 C)
Dew Point: 64.0 F (17.8 C)
Relative Humidity: 48%
Pressure (altimeter): 30.11 in. Hg (1019 hPa)
Pressure tendency: 0.04 inches (1.3 hPa) lower than three hours ago
ob: KBWG 021753Z AUTO 22014G18KT 10SM CLR 30/18 A3011 RMK AO2 SLP189 T03000178 10300 20206 57013
cycle: 18

Station Type Date Time Source
KBWG TAF 2020/06/02 18:22 UTC NOAA

TAF KBWG 021720Z 0218/0318 23010KT P6SM FEW045
FM030000 VRB03KT P6SM SCT250
FM031300 23010KT P6SM SCT050

Example: see airport list